Meteorología y climatología de Navarra
Datos de la estación - Meteo Navarra

Estación de Doneztebe-Santesteban GN

Altitud 125 m.


Datos desde el 11/10/2018 hasta el 12/10/2018 en horario solar
Los datos son PROVISIONALES

Anterior Página 1 de 1 Siguiente Descargar: Formato para Excel 2000 o superior   Formato csv   Formato para OpenOffice Calc
Fecha Temperatura Humedad relativa Radiación global Insolación Precipitación Velocidad viento 10 m Velocidad viento 10 m Dirección viento 10 m
ºC % W/m² s l/m² m/s km/h º
11/10/2018 0:00 15.1 85 0.0 0 0.0 1.1 3.9 273
11/10/2018 0:10 14.8 86 0.0 0 0.0 1.2 4.3 302
11/10/2018 0:20 15.0 86 0.0 0 0.0 0.9 3.3 277
11/10/2018 0:30 15.7 81 0.0 0 0.0 1.8 6.4 304
11/10/2018 0:40 16.7 77 0.0 0 0.0 2.1 7.5 318
11/10/2018 0:50 16.7 76 0.0 0 0.0 1.1 3.9 296
11/10/2018 1:00 16.9 75 0.0 0 0.0 1.2 4.4 290
11/10/2018 1:10 16.5 77 0.0 0 0.0 0.9 3.4 319
11/10/2018 1:20 16.6 77 0.0 0 0.0 1.7 6.1 292
11/10/2018 1:30 18.5 68 0.0 0 0.0 2.0 7.3 311
11/10/2018 1:40 19.1 65 0.0 0 0.0 3.3 11.9 321
11/10/2018 1:50 19.4 64 0.0 0 0.0 2.8 10.1 312
11/10/2018 2:00 19.1 65 0.0 0 0.0 2.7 9.9 333
11/10/2018 2:10 19.1 65 0.0 0 0.0 2.2 7.8 324
11/10/2018 2:20 19.1 65 0.0 0 0.0 2.7 9.8 329
11/10/2018 2:30 19.5 63 0.0 0 0.0 2.6 9.4 314
11/10/2018 2:40 18.7 67 0.0 0 0.0 1.3 4.8 277
11/10/2018 2:50 18.7 67 0.0 0 0.0 1.4 5.1 313
11/10/2018 3:00 18.3 68 0.0 0 0.0 1.2 4.3 271
11/10/2018 3:10 18.0 70 0.0 0 0.0 1.0 3.7 295
11/10/2018 3:20 17.6 73 0.0 0 0.0 1.4 4.9 66
11/10/2018 3:30 18.2 70 0.0 0 0.0 1.1 4.0 353
11/10/2018 3:40 18.1 71 0.0 0 0.0 1.4 4.9 346
11/10/2018 3:50 17.0 76 0.0 0 0.0 0.5 1.8 288
11/10/2018 4:00 16.2 81 0.0 0 0.0 1.1 4.0 309
11/10/2018 4:10 17.2 75 0.0 0 0.0 1.0 3.5 314
11/10/2018 4:20 18.9 67 0.0 0 0.0 1.3 4.5 260
11/10/2018 4:30 18.9 67 0.0 0 0.0 1.0 3.7 342
11/10/2018 4:40 17.9 71 0.0 0 0.0 1.4 5.1 333
11/10/2018 4:50 18.1 70 0.0 0 0.0 0.5 1.7 334
11/10/2018 5:00 18.0 71 0.0 0 0.0 0.9 3.3 265
11/10/2018 5:10 18.5 69 0.0 0 0.0 0.5 1.7 9
11/10/2018 5:20 17.0 77 0.0 0 0.0 0.9 3.1 244
11/10/2018 5:30 16.4 81 0.0 0 0.0 0.4 1.6 155
11/10/2018 5:40 16.3 83 0.0 0 0.0 0.6 2.3 132
11/10/2018 5:50 16.3 81 0.0 0 0.0 0.8 2.8 149
11/10/2018 6:00 16.8 79 0.0 0 0.0 1.0 3.6 172
11/10/2018 6:10 17.4 76 0.0 0 0.0 0.9 3.3 152
11/10/2018 6:20 16.8 80 0.0 0 0.0 0.9 3.1 165
11/10/2018 6:30 16.4 83 0.0 0 0.0 0.2 0.6 239
11/10/2018 6:40 17.0 78 13.5 0 0.0 0.5 1.6 53
11/10/2018 6:50 17.0 79 19.5 0 0.0 0.7 2.4 48
11/10/2018 7:00 17.8 75 21.8 0 0.0 1.1 3.8 351
11/10/2018 7:10 18.7 71 24.1 0 0.0 1.3 4.5 344
11/10/2018 7:20 18.6 71 27.1 0 0.0 0.5 1.7 257
11/10/2018 7:30 19.0 69 34.5 0 0.0 0.6 2.3 29
11/10/2018 7:40 19.2 69 49.7 0 0.0 0.8 3.0 132
11/10/2018 7:50 19.3 69 66.2 0 0.0 0.7 2.4 265
11/10/2018 8:00 19.7 67 82.7 0 0.0 0.7 2.6 314
11/10/2018 8:10 19.7 69 109.8 0 0.0 1.0 3.5 340
11/10/2018 8:20 20.0 68 149.1 152 0.0 0.7 2.4 296
11/10/2018 8:30 19.8 71 129.4 0 0.0 0.5 1.7 203
11/10/2018 8:40 20.0 69 112.0 0 0.0 0.9 3.2 296
11/10/2018 8:50 20.5 67 147.7 0 0.0 1.3 4.5 356
11/10/2018 9:00 21.1 63 175.4 4 0.0 1.7 6.1 320
11/10/2018 9:10 21.0 68 156.7 0 0.0 0.7 2.4 139
11/10/2018 9:20 21.0 68 349.1 556 0.0 1.0 3.7 334
11/10/2018 9:30 22.6 58 607.3 600 0.0 1.2 4.4 342
11/10/2018 9:40 23.1 56 384.2 412 0.0 3.2 11.3 141
11/10/2018 9:50 23.7 52 651.4 600 0.0 2.1 7.5 173
11/10/2018 10:00 24.5 51 738.0 600 0.0 2.4 8.7 155
11/10/2018 10:10 25.0 50 716.7 600 0.0 2.6 9.3 148
11/10/2018 10:20 25.6 49 815.0 600 0.0 2.4 8.7 106
11/10/2018 10:30 25.5 49 689.8 600 0.0 2.4 8.8 155
11/10/2018 10:40 25.6 50 530.8 550 0.0 1.8 6.6 119
11/10/2018 10:50 25.6 48 700.7 600 0.0 2.7 9.7 122
11/10/2018 11:00 25.4 48 504.5 476 0.0 2.6 9.5 144
11/10/2018 11:10 24.6 51 127.4 0 0.0 1.2 4.3 123
11/10/2018 11:20 24.0 52 121.3 0 0.0 0.9 3.2 187
11/10/2018 11:30 23.7 56 217.0 34 0.0 1.7 5.9 140
11/10/2018 11:40 24.3 51 213.6 0 0.0 2.6 9.2 133
11/10/2018 11:50 24.2 51 171.9 0 0.0 2.4 8.6 136
11/10/2018 12:00 24.4 52 267.0 0 0.0 1.3 4.8 123
11/10/2018 12:10 24.5 51 319.7 0 0.0 2.3 8.4 135
11/10/2018 12:20 24.4 51 254.5 0 0.0 2.2 8.1 142
11/10/2018 12:30 24.1 52 193.0 0 0.0 1.5 5.4 224
11/10/2018 12:40 23.9 53 181.8 0 0.0 1.4 4.9 219
11/10/2018 12:50 23.8 55 200.9 0 0.0 1.4 5.2 279
11/10/2018 13:00 23.9 54 201.8 0 0.0 1.2 4.4 152
11/10/2018 13:10 24.2 54 248.4 56 0.0 0.7 2.7 359
11/10/2018 13:20 24.6 54 320.2 184 0.0 1.2 4.3 206
11/10/2018 13:30 24.7 51 280.7 108 0.0 1.7 5.9 253
11/10/2018 13:40 24.9 52 371.9 322 0.0 1.1 4.0 35
11/10/2018 13:50 26.0 50 664.2 600 0.0 1.2 4.2 52
11/10/2018 14:00 26.6 47 579.6 552 0.0 1.7 6.0 270
11/10/2018 14:10 26.0 48 516.3 488 0.0 1.6 5.7 240
11/10/2018 14:20 26.6 47 512.2 590 0.0 1.4 4.9 190
11/10/2018 14:30 26.1 47 424.4 474 0.0 1.4 5.0 176
11/10/2018 14:40 25.9 48 274.6 216 0.0 1.5 5.5 300
11/10/2018 14:50 25.2 52 204.1 84 0.0 1.4 4.9 14
11/10/2018 15:00 24.8 53 145.2 0 0.0 1.1 4.1 351
11/10/2018 15:10 24.4 58 98.5 0 0.0 1.2 4.2 212
11/10/2018 15:20 23.6 63 110.3 0 0.0 1.0 3.7 287
11/10/2018 15:30 23.0 69 80.7 0 0.1 0.8 2.8 326
11/10/2018 15:40 21.8 78 81.3 0 0.0 1.2 4.5 330
11/10/2018 15:50 21.3 83 66.5 0 0.0 0.7 2.6 289
11/10/2018 16:00 21.0 80 87.2 0 0.0 1.2 4.2 298
11/10/2018 16:10 21.0 83 66.0 0 0.0 0.7 2.3 208
11/10/2018 16:20 21.0 83 56.8 0 0.0 0.7 2.6 353
11/10/2018 16:30 20.8 84 37.6 0 0.0 0.8 2.9 312
11/10/2018 16:40 20.4 87 35.2 0 0.0 1.0 3.6 266
11/10/2018 16:50 20.7 77 26.6 0 0.0 0.9 3.3 304
11/10/2018 17:00 20.7 80 4.7 0 0.0 0.4 1.4 281
11/10/2018 17:10 20.2 82 0.0 0 0.0 0.8 2.7 269
11/10/2018 17:20 20.7 77 0.0 0 0.0 1.3 4.7 308
11/10/2018 17:30 20.4 79 0.0 0 0.0 1.6 5.8 311
11/10/2018 17:40 19.6 85 0.0 0 0.0 1.4 5.0 268
11/10/2018 17:50 19.4 87 0.0 0 0.0 1.0 3.6 243
11/10/2018 18:00 18.8 89 0.0 0 0.0 0.7 2.5 227
11/10/2018 18:10 18.3 92 0.0 0 0.0 0.4 1.6 102
11/10/2018 18:20 17.8 94 0.0 0 0.0 0.2 0.8 140
11/10/2018 18:30 17.6 94 0.0 0 0.0 0.2 0.7 193
11/10/2018 18:40 17.5 95 0.0 0 0.0 0.1 0.2 359
11/10/2018 18:50 17.5 95 0.0 0 0.0 0.0 0.1 242
11/10/2018 19:00 17.5 96 0.0 0 0.0 0.2 0.8 328
11/10/2018 19:10 17.5 96 0.0 0 0.0 0.6 2.2 123
11/10/2018 19:20 17.5 96 0.0 0 0.0 0.4 1.3 139
11/10/2018 19:30 17.4 96 0.0 0 0.0 0.2 0.6 309
11/10/2018 19:40 17.2 97 0.0 0 0.0 0.5 1.8 250
11/10/2018 19:50 17.3 97 0.0 0 0.0 0.6 2.1 318
11/10/2018 20:00 17.4 97 0.0 0 0.0 1.1 4.1 281
11/10/2018 20:10 17.7 95 0.0 0 0.0 0.7 2.4 14
11/10/2018 20:20 17.5 94 0.0 0 0.0 0.1 0.4 121
11/10/2018 20:30 17.0 95 0.0 0 0.0 0.2 0.8 256
11/10/2018 20:40 16.7 96 0.0 0 0.0 0.1 0.3 7
11/10/2018 20:50 16.3 96 0.0 0 0.0 0.3 1.0 160
11/10/2018 21:00 16.1 97 0.0 0 0.0 0.3 1.1 146
11/10/2018 21:10 15.8 97 0.0 0 0.0 0.1 0.2 339
11/10/2018 21:20 15.7 98 0.0 0 0.0 0.0 0.1 321
11/10/2018 21:30 15.5 98 0.0 0 0.0 0.2 0.6 100
11/10/2018 21:40 15.3 98 0.0 0 0.0 0.4 1.5 253
11/10/2018 21:50 15.1 98 0.0 0 0.0 0.5 1.8 116
11/10/2018 22:00 15.1 99 0.0 0 0.0 0.7 2.7 161
11/10/2018 22:10 15.3 99 0.0 0 0.0 0.7 2.4 273
11/10/2018 22:20 15.2 99 0.0 0 0.0 0.5 1.9 120
11/10/2018 22:30 15.1 99 0.0 0 0.0 0.5 1.7 201
11/10/2018 22:40 15.0 99 0.0 0 0.0 0.2 0.8 121
11/10/2018 22:50 14.7 99 0.0 0 0.0 0.6 2.3 162
11/10/2018 23:00 14.6 99 0.0 0 0.0 0.2 0.8 11
11/10/2018 23:10 14.5 99 0.0 0 0.0 0.6 2.1 300
11/10/2018 23:20 14.7 99 0.0 0 0.0 0.4 1.5 113
11/10/2018 23:30 14.5 99 0.0 0 0.0 0.5 1.7 175
11/10/2018 23:40 14.3 99 0.0 0 0.0 0.1 0.3 290
11/10/2018 23:50 14.3 99 0.0 0 0.0 0.6 2.2 134
Anterior Página 1 de 1 Siguiente

NOTA: Tipo de datos según el color:
   - Valores diarios o 10 minutos correctos
   - Valores diarios calculados a partir de un número de datos 10 minutos menor que 144 y mayor que 120, o de un número de datos semihorarios menor que 48 y mayor que 40 (caso de las estaciones de Riegos de Navarra y del MARM)
   - Valores diez minutos estimados


Contacto        Enlaces        Aviso legal